createdAt,value
2019-05-10T00:01:03.368Z,9.10
2019-05-10T00:03:49.910Z,9.10
2019-05-10T00:06:36.916Z,9.10
2019-05-10T00:09:05.471Z,9.10
2019-05-10T00:11:49.441Z,9.00
2019-05-10T00:14:26.002Z,9.00
2019-05-10T00:16:56.401Z,9.00
2019-05-10T00:19:24.888Z,9.00
2019-05-10T00:21:53.349Z,9.00
2019-05-10T00:24:21.799Z,8.90
2019-05-10T00:26:50.304Z,9.00
2019-05-10T00:29:18.731Z,8.90
2019-05-10T00:31:47.189Z,8.90
2019-05-10T00:34:15.642Z,8.90
2019-05-10T00:36:44.086Z,8.90
2019-05-10T00:39:12.511Z,8.90
2019-05-10T00:41:40.958Z,8.90
2019-05-10T00:44:09.447Z,8.90
2019-05-10T00:46:38.156Z,8.90
2019-05-10T00:49:06.571Z,8.90
2019-05-10T00:51:35.029Z,8.80
2019-05-10T00:54:03.565Z,8.80
2019-05-10T00:56:32.014Z,8.80
2019-05-10T00:59:00.435Z,8.80
2019-05-10T01:01:28.900Z,8.80
2019-05-10T01:03:57.381Z,8.80
2019-05-10T01:06:27.776Z,8.70
2019-05-10T01:08:56.216Z,8.80
2019-05-10T01:11:24.746Z,8.80
2019-05-10T01:13:53.217Z,8.80
2019-05-10T01:16:21.662Z,8.80
2019-05-10T01:18:50.149Z,8.80
2019-05-10T01:21:18.616Z,8.80
2019-05-10T01:23:47.140Z,8.80
2019-05-10T01:26:15.615Z,8.80
2019-05-10T01:28:44.099Z,8.80
2019-05-10T01:31:12.550Z,8.70
2019-05-10T01:33:41.057Z,8.70
2019-05-10T01:36:09.490Z,8.60
2019-05-10T01:38:37.964Z,8.60
2019-05-10T01:41:06.450Z,8.50
2019-05-10T01:43:34.911Z,8.50
2019-05-10T01:46:03.374Z,8.40
2019-05-10T01:48:31.868Z,8.40
2019-05-10T01:51:00.301Z,8.40
2019-05-10T01:53:28.758Z,8.40
2019-05-10T01:55:57.225Z,8.40
2019-05-10T01:58:25.705Z,8.40
2019-05-10T02:00:54.166Z,8.40
2019-05-10T02:03:22.648Z,8.40
2019-05-10T02:05:51.107Z,8.50
2019-05-10T02:08:19.595Z,8.50
2019-05-10T02:10:48.057Z,8.50
2019-05-10T02:13:16.505Z,8.50
2019-05-10T02:15:45.038Z,8.50
2019-05-10T02:18:13.504Z,8.50
2019-05-10T02:20:41.973Z,8.50
2019-05-10T02:23:10.506Z,8.50
2019-05-10T02:25:38.969Z,8.50
2019-05-10T02:28:07.440Z,8.50
2019-05-10T02:30:35.890Z,8.40
2019-05-10T02:33:04.423Z,8.30
2019-05-10T02:35:32.957Z,8.30
2019-05-10T02:38:01.413Z,8.20
2019-05-10T02:40:29.932Z,8.20
2019-05-10T02:42:58.410Z,8.10
2019-05-10T02:45:26.866Z,8.20
2019-05-10T02:47:55.306Z,8.20
2019-05-10T02:50:23.784Z,8.20
2019-05-10T02:52:52.224Z,8.20
2019-05-10T02:55:20.865Z,8.30
2019-05-10T02:57:49.449Z,8.30
2019-05-10T03:00:18.469Z,8.20
2019-05-10T03:02:47.793Z,8.20
2019-05-10T03:05:16.298Z,8.30
2019-05-10T03:07:47.159Z,8.30
2019-05-10T03:10:15.946Z,8.20
2019-05-10T03:12:44.392Z,8.20
2019-05-10T03:15:13.116Z,8.20
2019-05-10T03:17:41.805Z,8.10
2019-05-10T03:20:12.652Z,8.10
2019-05-10T03:22:44.298Z,8.10
2019-05-10T03:25:13.517Z,8.10
2019-05-10T03:27:42.181Z,8.00
2019-05-10T03:30:11.466Z,8.00
2019-05-10T03:32:39.900Z,7.90
2019-05-10T03:35:08.702Z,7.80
2019-05-10T03:37:37.394Z,7.80
2019-05-10T03:40:09.244Z,7.80
2019-05-10T03:42:37.760Z,7.80
2019-05-10T03:45:10.418Z,7.80
2019-05-10T03:47:38.981Z,7.80
2019-05-10T03:50:07.686Z,7.80
2019-05-10T03:52:36.156Z,7.80
2019-05-10T03:55:05.876Z,7.90
2019-05-10T03:57:34.387Z,7.90
2019-05-10T04:00:03.933Z,7.90
2019-05-10T04:02:32.363Z,7.90
2019-05-10T04:05:00.803Z,7.90
2019-05-10T04:07:29.247Z,7.90
2019-05-10T04:09:57.801Z,7.90
2019-05-10T04:12:34.311Z,7.90
2019-05-10T04:15:02.765Z,7.90
2019-05-10T04:17:31.217Z,7.90
2019-05-10T04:20:19.062Z,8.00
2019-05-10T04:22:47.491Z,7.90
2019-05-10T04:25:16.000Z,8.00
2019-05-10T04:27:44.405Z,7.90
2019-05-10T04:30:13.305Z,7.90
2019-05-10T04:32:41.744Z,7.90
2019-05-10T04:35:10.496Z,7.90
2019-05-10T04:37:40.651Z,7.90
2019-05-10T04:40:10.707Z,7.90
2019-05-10T04:42:39.714Z,7.90
2019-05-10T04:45:08.312Z,7.80
2019-05-10T04:47:42.446Z,7.90
2019-05-10T04:50:11.443Z,7.90
2019-05-10T04:52:40.498Z,7.90
2019-05-10T04:55:12.076Z,7.90
2019-05-10T04:57:50.383Z,8.00
2019-05-10T05:00:14.120Z,8.10
2019-05-10T05:02:42.878Z,8.30
2019-05-10T05:05:11.739Z,8.40
2019-05-10T05:07:41.706Z,8.50
2019-05-10T05:10:11.810Z,8.70
2019-05-10T05:12:41.778Z,8.80
2019-05-10T05:15:11.808Z,8.90
2019-05-10T05:17:41.803Z,9.00
2019-05-10T05:20:11.825Z,9.10
2019-05-10T05:22:40.954Z,9.30
2019-05-10T05:25:11.281Z,9.50
2019-05-10T05:27:40.480Z,9.70
2019-05-10T05:30:10.232Z,9.90
2019-05-10T05:32:44.375Z,10.40
2019-05-10T05:35:15.415Z,10.90
2019-05-10T05:37:43.513Z,11.20
2019-05-10T05:40:12.276Z,11.40
2019-05-10T05:42:40.733Z,11.20
2019-05-10T05:45:12.823Z,11.30
2019-05-10T05:47:45.027Z,11.40
2019-05-10T05:50:13.674Z,11.50
2019-05-10T05:52:42.173Z,11.50
2019-05-10T05:55:13.662Z,11.50
2019-05-10T05:57:42.103Z,11.70
2019-05-10T06:00:11.132Z,11.90
2019-05-10T06:02:44.962Z,11.90
2019-05-10T06:05:11.045Z,11.90
2019-05-10T06:07:43.437Z,12.40
2019-05-10T06:10:17.117Z,12.70
2019-05-10T06:12:44.579Z,12.20
2019-05-10T06:15:12.663Z,12.00
2019-05-10T06:17:43.928Z,12.00
2019-05-10T06:20:12.653Z,12.20
2019-05-10T06:23:04.189Z,12.10
2019-05-10T06:25:14.855Z,12.10
2019-05-10T06:27:43.613Z,11.90
2019-05-10T06:30:12.397Z,12.00
2019-05-10T06:32:40.838Z,12.00
2019-05-10T06:35:14.050Z,11.80
2019-05-10T06:37:46.891Z,11.90
2019-05-10T06:40:16.101Z,12.10
2019-05-10T06:42:44.599Z,12.00
2019-05-10T06:45:16.116Z,12.00
2019-05-10T06:47:47.823Z,12.00
2019-05-10T06:50:15.302Z,12.00
2019-05-10T06:52:43.732Z,11.70
2019-05-10T06:55:12.402Z,12.10
2019-05-10T06:57:41.192Z,12.40
2019-05-10T07:00:10.127Z,12.50
2019-05-10T07:02:38.973Z,12.20
2019-05-10T07:05:07.528Z,12.10
2019-05-10T07:07:43.756Z,12.10
2019-05-10T07:10:18.627Z,12.00
2019-05-10T07:12:42.894Z,12.00
2019-05-10T07:15:12.019Z,11.90
2019-05-10T07:17:46.947Z,12.10
2019-05-10T07:20:13.715Z,12.20
2019-05-10T07:22:42.159Z,12.10
2019-05-10T07:25:13.273Z,12.00
2019-05-10T07:27:41.730Z,11.90
2019-05-10T07:30:11.963Z,12.10
2019-05-10T07:32:41.938Z,12.40
2019-05-10T07:35:12.000Z,12.40
2019-05-10T07:37:41.044Z,12.90
2019-05-10T07:40:11.216Z,13.50
2019-05-10T07:42:47.024Z,14.10
2019-05-10T07:45:18.745Z,14.80
2019-05-10T07:47:46.116Z,14.50
2019-05-10T07:50:14.787Z,14.70
2019-05-10T07:52:45.319Z,14.70
2019-05-10T07:55:17.945Z,14.40
2019-05-10T07:57:43.590Z,14.10
2019-05-10T08:00:12.667Z,14.00
2019-05-10T08:02:44.473Z,13.80
2019-05-10T08:05:15.288Z,13.30
2019-05-10T08:07:43.308Z,12.90
2019-05-10T08:10:32.933Z,12.70
2019-05-10T08:13:03.565Z,12.50
2019-05-10T08:15:34.817Z,12.30
2019-05-10T08:18:01.666Z,12.30
2019-05-10T08:20:43.712Z,12.30
2019-05-10T08:23:02.683Z,12.30
2019-05-10T08:25:47.230Z,12.30
2019-05-10T08:28:15.772Z,12.20
2019-05-10T08:30:51.727Z,12.10
2019-05-10T08:33:35.344Z,12.20
2019-05-10T08:36:05.450Z,12.20
2019-05-10T08:38:34.279Z,12.30
2019-05-10T08:41:07.712Z,12.50
2019-05-10T08:43:38.890Z,12.50
2019-05-10T08:46:03.012Z,12.40
2019-05-10T08:48:33.033Z,12.30
2019-05-10T08:51:04.073Z,12.50
2019-05-10T08:53:32.887Z,12.60
2019-05-10T08:56:02.253Z,12.60
2019-05-10T08:58:36.892Z,12.80
2019-05-10T09:01:16.188Z,12.80
2019-05-10T09:03:32.328Z,13.00
2019-05-10T09:06:03.742Z,13.10
2019-05-10T09:08:34.172Z,13.20
2019-05-10T09:11:06.384Z,13.30
2019-05-10T09:13:37.110Z,13.40
2019-05-10T09:16:02.366Z,13.30
2019-05-10T09:18:32.985Z,13.30
2019-05-10T09:21:08.541Z,13.40
2019-05-10T09:23:32.623Z,13.40
2019-05-10T09:26:09.944Z,13.40
2019-05-10T09:28:32.273Z,13.30
2019-05-10T09:31:16.518Z,13.30
2019-05-10T09:33:32.006Z,13.10
2019-05-10T09:36:02.783Z,13.00
2019-05-10T09:38:34.934Z,12.80
2019-05-10T09:41:02.465Z,12.60
2019-05-10T09:43:31.978Z,12.70
2019-05-10T09:46:02.679Z,12.70
2019-05-10T09:48:54.671Z,12.60
2019-05-10T09:51:25.605Z,12.50
2019-05-10T09:53:50.434Z,12.50
2019-05-10T09:56:18.859Z,12.50
2019-05-10T09:58:48.221Z,12.30
2019-05-10T10:01:20.738Z,12.40
2019-05-10T10:03:47.646Z,12.40
2019-05-10T10:06:16.243Z,12.60
2019-05-10T10:08:51.232Z,12.70
2019-05-10T10:11:18.123Z,12.70
2019-05-10T10:13:50.146Z,13.00
2019-05-10T10:16:15.217Z,13.60
2019-05-10T10:18:43.644Z,14.10
2019-05-10T10:21:13.205Z,14.50
2019-05-10T10:23:41.997Z,15.00
2019-05-10T10:26:18.585Z,15.80
2019-05-10T10:29:02.857Z,15.90
2019-05-10T10:31:33.586Z,15.90
2019-05-10T10:34:03.126Z,16.00
2019-05-10T10:36:31.596Z,16.00
2019-05-10T10:39:00.042Z,15.80
2019-05-10T10:41:31.872Z,15.30
2019-05-10T10:43:58.691Z,14.70
2019-05-10T10:46:28.187Z,14.20
2019-05-10T10:48:56.861Z,13.90
2019-05-10T10:51:26.681Z,13.90
2019-05-10T10:53:57.979Z,13.80
2019-05-10T10:56:27.653Z,13.60
2019-05-10T10:58:58.107Z,13.60
2019-05-10T11:01:33.091Z,13.60
2019-05-10T11:03:56.489Z,13.60
2019-05-10T11:06:25.229Z,13.80
2019-05-10T11:08:53.655Z,14.10
2019-05-10T11:11:22.083Z,14.20
2019-05-10T11:14:00.514Z,14.20
2019-05-10T11:16:21.049Z,14.20
2019-05-10T11:18:51.914Z,14.20
2019-05-10T11:21:23.435Z,14.30
2019-05-10T11:23:50.746Z,14.40
2019-05-10T11:26:21.612Z,14.40
2019-05-10T11:28:51.224Z,14.40
2019-05-10T11:31:21.412Z,14.50
2019-05-10T11:33:53.757Z,14.40
2019-05-10T11:36:21.119Z,14.30
2019-05-10T11:38:56.462Z,14.40
2019-05-10T11:41:24.200Z,14.60
2019-05-10T11:43:57.991Z,14.80
2019-05-10T11:46:28.054Z,14.90
2019-05-10T11:48:57.267Z,15.00
2019-05-10T11:51:47.808Z,14.90
2019-05-10T11:54:16.755Z,14.90
2019-05-10T11:56:45.172Z,15.00
2019-05-10T11:59:38.268Z,15.00
2019-05-10T12:02:08.623Z,15.10
2019-05-10T12:04:39.123Z,15.30
2019-05-10T12:07:08.451Z,15.50
2019-05-10T12:09:33.564Z,15.70
2019-05-10T12:12:03.376Z,15.70
2019-05-10T12:14:32.202Z,15.80
2019-05-10T12:17:23.702Z,16.00
2019-05-10T12:19:55.895Z,16.10
2019-05-10T12:22:21.758Z,16.10
2019-05-10T12:25:14.100Z,16.10
2019-05-10T12:27:48.769Z,16.30
2019-05-10T12:30:15.924Z,16.20
2019-05-10T12:32:55.589Z,16.10
2019-05-10T12:35:13.564Z,15.80
2019-05-10T12:37:46.295Z,15.80
2019-05-10T12:40:15.194Z,15.90
2019-05-10T12:42:46.530Z,15.80
2019-05-10T12:45:13.225Z,15.80
2019-05-10T12:47:41.641Z,15.70
2019-05-10T12:50:29.424Z,15.60
2019-05-10T12:53:14.184Z,15.60
2019-05-10T12:55:28.051Z,15.70
2019-05-10T12:57:56.485Z,15.60
2019-05-10T13:00:24.994Z,15.50
2019-05-10T13:02:53.690Z,15.50
2019-05-10T13:05:31.288Z,15.50
2019-05-10T13:07:52.378Z,15.60
2019-05-10T13:10:20.913Z,15.70
2019-05-10T13:12:49.495Z,15.70
2019-05-10T13:15:18.067Z,15.80
2019-05-10T13:17:50.697Z,16.10
2019-05-10T13:20:18.366Z,16.30
2019-05-10T13:22:47.340Z,16.60
2019-05-10T13:25:15.944Z,16.50
2019-05-10T13:27:44.386Z,16.40
2019-05-10T13:30:13.237Z,16.20
2019-05-10T13:32:41.704Z,16.10
2019-05-10T13:35:10.223Z,16.10
2019-05-10T13:37:38.666Z,16.10
2019-05-10T13:40:26.438Z,16.10
2019-05-10T13:42:54.867Z,15.90
2019-05-10T13:49:30.648Z,15.70
2019-05-10T13:51:59.162Z,15.70
2019-05-10T13:54:31.161Z,15.80
2019-05-10T13:56:57.786Z,15.80
2019-05-10T13:59:26.216Z,15.90
2019-05-10T14:01:54.665Z,15.90
2019-05-10T14:04:23.363Z,16.00
2019-05-10T14:06:51.922Z,16.20
2019-05-10T14:09:21.023Z,16.30
2019-05-10T14:11:49.770Z,16.20
2019-05-10T14:14:20.595Z,16.20
2019-05-10T14:16:48.457Z,15.90
2019-05-10T14:19:23.064Z,15.70
2019-05-10T14:21:47.025Z,15.40
2019-05-10T14:24:16.775Z,15.30
2019-05-10T14:26:45.261Z,15.30
2019-05-10T14:29:13.683Z,15.30
2019-05-10T14:31:42.150Z,15.40
2019-05-10T14:34:15.337Z,15.30
2019-05-10T14:36:43.657Z,15.10
2019-05-10T14:39:12.254Z,15.00
2019-05-10T14:41:50.868Z,14.90
2019-05-10T14:44:17.352Z,14.90
2019-05-10T14:46:45.793Z,14.90
2019-05-10T14:49:14.237Z,15.00
2019-05-10T14:51:57.845Z,15.10
2019-05-10T14:54:12.843Z,15.30
2019-05-10T14:56:44.368Z,15.40
2019-05-10T14:59:12.830Z,15.30
2019-05-10T15:01:45.516Z,15.30
2019-05-10T15:04:20.311Z,15.20
2019-05-10T15:06:44.944Z,15.20
2019-05-10T15:09:32.722Z,15.30
2019-05-10T15:12:01.161Z,15.40
2019-05-10T15:14:29.584Z,15.30
2019-05-10T15:16:58.028Z,15.30
2019-05-10T15:19:31.023Z,15.40
2019-05-10T15:21:56.628Z,15.40
2019-05-10T15:24:25.052Z,15.50
2019-05-10T15:26:53.492Z,15.50
2019-05-10T15:29:24.484Z,15.50
2019-05-10T15:31:52.317Z,15.60
2019-05-10T15:34:20.741Z,15.50
2019-05-10T15:36:49.206Z,15.40
2019-05-10T15:39:17.648Z,15.50
2019-05-10T15:41:46.110Z,15.40
2019-05-10T15:44:14.898Z,15.40
2019-05-10T15:46:43.343Z,15.60
2019-05-10T15:49:13.336Z,15.60
2019-05-10T15:52:16.725Z,15.70
2019-05-10T15:54:31.579Z,15.80
2019-05-10T16:00:47.857Z,16.30
2019-05-10T16:03:16.385Z,16.50
2019-05-10T16:05:58.841Z,16.70
2019-05-10T16:08:15.960Z,17.00
2019-05-10T16:10:44.389Z,17.40
2019-05-10T16:13:14.642Z,17.40
2019-05-10T16:15:51.666Z,17.30
2019-05-10T16:18:18.262Z,16.90
2019-05-10T16:20:46.697Z,16.80
2019-05-10T16:23:15.152Z,16.70
2019-05-10T16:25:48.153Z,16.70
2019-05-10T16:28:15.349Z,16.50
2019-05-10T16:30:46.908Z,16.40
2019-05-10T16:33:15.699Z,16.30
2019-05-10T16:35:48.909Z,16.20
2019-05-10T16:38:14.361Z,16.30
2019-05-10T16:40:44.596Z,16.40
2019-05-10T16:43:14.841Z,16.40
2019-05-10T16:45:43.086Z,16.40
2019-05-10T16:48:11.952Z,16.10
2019-05-10T16:50:41.933Z,15.90
2019-05-10T16:53:11.931Z,16.20
2019-05-10T16:55:42.938Z,16.40
2019-05-10T16:58:15.098Z,16.60
2019-05-10T17:00:46.334Z,16.80
2019-05-10T17:03:13.114Z,17.00
2019-05-10T17:05:53.123Z,17.00
2019-05-10T17:08:13.180Z,16.80
2019-05-10T17:10:42.055Z,16.70
2019-05-10T17:13:13.154Z,16.60
2019-05-10T17:15:41.714Z,16.60
2019-05-10T17:18:17.558Z,16.80
2019-05-10T17:20:45.361Z,17.00
2019-05-10T17:23:12.225Z,17.40
2019-05-10T17:25:42.210Z,17.60
2019-05-10T17:28:11.164Z,17.70
2019-05-10T17:30:39.610Z,17.10
2019-05-10T17:33:10.847Z,16.80
2019-05-10T17:35:42.198Z,16.60
2019-05-10T17:38:14.367Z,16.30
2019-05-10T17:40:42.162Z,16.10
2019-05-10T17:43:14.180Z,15.80
2019-05-10T17:45:42.252Z,15.50
2019-05-10T17:48:11.819Z,15.20
2019-05-10T17:50:45.198Z,15.00
2019-05-10T17:53:11.976Z,15.00
2019-05-10T17:55:43.338Z,14.90
2019-05-10T17:58:11.757Z,14.90
2019-05-10T18:00:41.810Z,14.80
2019-05-10T18:03:11.797Z,14.70
2019-05-10T18:05:46.484Z,14.70
2019-05-10T18:08:11.969Z,14.50
2019-05-10T18:10:41.955Z,14.40
2019-05-10T18:13:12.150Z,14.30
2019-05-10T18:15:43.540Z,14.30
2019-05-10T18:18:12.223Z,14.20
2019-05-10T18:20:44.303Z,14.10
2019-05-10T18:23:20.376Z,14.10
2019-05-10T18:25:44.127Z,14.10
2019-05-10T18:28:12.548Z,14.00
2019-05-10T18:30:41.026Z,13.90
2019-05-10T18:33:12.637Z,13.90
2019-05-10T18:35:39.616Z,13.80
2019-05-10T18:38:08.019Z,13.70
2019-05-10T18:40:36.471Z,13.70
2019-05-10T18:43:05.902Z,13.60
2019-05-10T18:45:34.423Z,13.60
2019-05-10T18:48:02.862Z,13.60
2019-05-10T18:50:31.380Z,13.60
2019-05-10T18:53:00.110Z,13.50
2019-05-10T18:55:28.537Z,13.50
2019-05-10T18:57:56.983Z,13.40
2019-05-10T19:00:25.691Z,13.40
2019-05-10T19:02:56.863Z,13.40
2019-05-10T19:05:31.635Z,13.30
2019-05-10T19:08:03.108Z,13.30
2019-05-10T19:10:44.099Z,13.20
2019-05-10T19:13:13.324Z,13.20
2019-05-10T19:15:46.298Z,13.20
2019-05-10T19:18:12.363Z,13.10
2019-05-10T19:20:40.813Z,13.10
2019-05-10T19:23:13.111Z,13.00
2019-05-10T19:25:45.492Z,13.00
2019-05-10T19:28:11.718Z,13.00
2019-05-10T19:30:40.179Z,12.90
2019-05-10T19:33:09.007Z,12.90
2019-05-10T19:35:37.895Z,12.90
2019-05-10T19:38:06.557Z,12.80
2019-05-10T19:40:35.006Z,12.70
2019-05-10T19:43:03.424Z,12.60
2019-05-10T19:45:31.861Z,12.50
2019-05-10T19:48:00.305Z,12.50
2019-05-10T19:50:33.162Z,12.40
2019-05-10T19:53:03.750Z,12.40
2019-05-10T19:55:29.068Z,12.30
2019-05-10T19:57:57.494Z,12.30
2019-05-10T20:00:25.927Z,12.20
2019-05-10T20:02:54.380Z,12.20
2019-05-10T20:05:24.713Z,12.10
2019-05-10T20:07:53.132Z,12.10
2019-05-10T20:10:21.581Z,12.10
2019-05-10T20:12:50.253Z,12.00
2019-05-10T20:15:18.814Z,12.00
2019-05-10T20:17:47.233Z,12.00
2019-05-10T20:20:15.810Z,12.00
2019-05-10T20:22:44.221Z,11.90
2019-05-10T20:25:12.836Z,11.90
2019-05-10T20:27:41.830Z,11.90
2019-05-10T20:30:11.924Z,11.80
2019-05-10T20:32:41.945Z,11.80
2019-05-10T20:35:13.342Z,11.80
2019-05-10T20:37:42.140Z,11.80
2019-05-10T20:40:11.216Z,11.70
2019-05-10T20:42:39.671Z,11.60
2019-05-10T20:45:08.879Z,11.50
2019-05-10T20:47:37.414Z,11.50
2019-05-10T20:50:07.013Z,11.40
2019-05-10T20:52:35.514Z,11.30
2019-05-10T20:55:04.920Z,11.20
2019-05-10T20:57:33.405Z,11.10
2019-05-10T21:00:01.861Z,11.10
2019-05-10T21:02:30.272Z,11.10
2019-05-10T21:04:58.716Z,11.00
2019-05-10T21:07:27.159Z,11.00
2019-05-10T21:09:55.579Z,10.90
2019-05-10T21:12:24.012Z,10.90
2019-05-10T21:14:52.442Z,10.90
2019-05-10T21:17:20.889Z,10.80
2019-05-10T21:19:49.350Z,10.70
2019-05-10T21:22:17.746Z,10.60
2019-05-10T21:24:46.189Z,10.60
2019-05-10T21:27:14.604Z,10.60
2019-05-10T21:29:43.031Z,10.60
2019-05-10T21:32:11.462Z,10.60
2019-05-10T21:34:39.899Z,10.60
2019-05-10T21:37:08.366Z,10.50
2019-05-10T21:39:36.844Z,10.50
2019-05-10T21:42:05.247Z,10.50
2019-05-10T21:44:33.688Z,10.50
2019-05-10T21:47:02.110Z,10.50
2019-05-10T21:49:30.538Z,10.50
2019-05-10T21:51:59.184Z,10.50
2019-05-10T21:54:27.623Z,10.50
2019-05-10T21:56:56.039Z,10.50
2019-05-10T21:59:24.467Z,10.40
2019-05-10T22:01:52.960Z,10.50
2019-05-10T22:04:21.381Z,10.40
2019-05-10T22:06:49.787Z,10.40
2019-05-10T22:09:18.197Z,10.40
2019-05-10T22:11:46.647Z,10.40
2019-05-10T22:14:15.051Z,10.40
2019-05-10T22:16:43.498Z,10.40
2019-05-10T22:19:12.119Z,10.30
2019-05-10T22:21:40.567Z,10.30
2019-05-10T22:24:09.052Z,10.20
2019-05-10T22:26:37.458Z,10.20
2019-05-10T22:29:05.875Z,10.20
2019-05-10T22:31:34.315Z,10.20
2019-05-10T22:34:16.241Z,10.20
2019-05-10T22:36:44.714Z,10.20
2019-05-10T22:39:13.139Z,10.20
2019-05-10T22:41:41.563Z,10.20
2019-05-10T22:44:10.001Z,10.30
2019-05-10T22:46:38.448Z,10.30
2019-05-10T22:49:06.851Z,10.30
2019-05-10T22:51:35.278Z,10.30
2019-05-10T22:54:03.727Z,10.30
2019-05-10T22:56:32.400Z,10.30
2019-05-10T22:59:00.822Z,10.20
2019-05-10T23:01:29.295Z,10.20
2019-05-10T23:03:57.729Z,10.20
2019-05-10T23:06:26.186Z,10.20
2019-05-10T23:09:00.514Z,10.20
2019-05-10T23:11:28.982Z,10.20
2019-05-10T23:13:57.459Z,10.20
2019-05-10T23:16:25.888Z,10.20
2019-05-10T23:18:54.382Z,10.20
2019-05-10T23:21:22.852Z,10.20
2019-05-10T23:23:51.402Z,10.20
2019-05-10T23:26:19.848Z,10.20
2019-05-10T23:28:48.320Z,10.20
2019-05-10T23:31:16.884Z,10.20
2019-05-10T23:33:45.324Z,10.20
2019-05-10T23:36:13.841Z,10.20
2019-05-10T23:38:42.326Z,10.30
2019-05-10T23:41:10.770Z,10.20
2019-05-10T23:43:39.234Z,10.20
2019-05-10T23:46:07.704Z,10.20
2019-05-10T23:48:36.155Z,10.20
2019-05-10T23:51:04.621Z,10.20
2019-05-10T23:53:33.063Z,10.20
2019-05-10T23:56:01.637Z,10.30
2019-05-10T23:58:30.079Z,10.20
